Time;durP1;ratioP1;P1;durP2;ratioP2;P2;SDS_P1;SDS_P2;PMS_P1;PMS_P2;Temp;Humidity;BMP_temperature;BMP_pressure;BME280_temperature;BME280_humidity;BME280_pressure;Samples;Min_cycle;Max_cycle;Signal;HPM_P1;HPM_P2
2022/11/15 00:02:37;;;;;;;16.37;9.40;;;;;;;4.22;100.00;101024.59;1709702;82;21338;-66
2022/11/15 00:05:22;;;;;;;17.00;10.03;;;;;;;4.27;100.00;101028.08;1704934;84;21062;-66
2022/11/15 00:08:09;;;;;;;18.85;10.68;;;;;;;4.16;100.00;101028.47;1704790;84;21101;-65
2022/11/15 00:10:57;;;;;;;22.35;11.05;;;;;;;4.12;100.00;101021.53;1704939;84;21022;-67
2022/11/15 00:13:43;;;;;;;17.27;10.65;;;;;;;4.07;100.00;101018.02;1705035;84;22125;-66
2022/11/15 00:16:28;;;;;;;20.80;10.85;;;;;;;4.08;100.00;101010.20;1705347;83;21141;-66
2022/11/15 00:19:13;;;;;;;20.65;11.35;;;;;;;4.11;100.00;101006.73;1704929;84;21018;-66
2022/11/15 00:21:59;;;;;;;16.10;10.35;;;;;;;4.05;100.00;101002.80;1704725;84;21055;-66
2022/11/15 00:24:46;;;;;;;18.15;9.68;;;;;;;4.10;100.00;100995.89;1704793;84;20989;-67
2022/11/15 00:27:31;;;;;;;17.82;11.57;;;;;;;4.11;100.00;100989.79;1704724;84;21603;-66
2022/11/15 00:30:16;;;;;;;19.15;9.98;;;;;;;4.04;100.00;100978.91;1704832;84;21517;-65
2022/11/15 00:33:05;;;;;;;19.95;11.00;;;;;;;3.98;100.00;100980.64;1704875;84;21502;-66
2022/11/15 00:35:50;;;;;;;24.35;12.63;;;;;;;3.89;100.00;100966.27;1704889;84;21042;-66
2022/11/15 00:38:36;;;;;;;32.03;15.00;;;;;;;3.83;100.00;100979.70;1705112;83;21054;-66
2022/11/15 00:41:20;;;;;;;32.50;14.90;;;;;;;3.85;100.00;100972.33;1704942;84;22565;-66
2022/11/15 00:44:06;;;;;;;25.68;13.55;;;;;;;3.76;100.00;100970.98;1704898;84;21003;-66
2022/11/15 00:46:51;;;;;;;26.57;13.48;;;;;;;3.74;100.00;100964.89;1704710;84;21046;-65
2022/11/15 00:49:36;;;;;;;25.75;13.62;;;;;;;3.67;100.00;100970.95;1704791;84;21059;-66
2022/11/15 00:55:26;;;;;;;22.90;13.45;;;;;;;3.72;100.00;100969.23;1704765;84;21168;-67
2022/11/15 00:58:11;;;;;;;21.42;13.45;;;;;;;3.71;100.00;100964.89;1704836;84;21125;-67
2022/11/15 01:00:55;;;;;;;21.48;12.20;;;;;;;3.81;100.00;100967.09;1708659;82;21081;-65
2022/11/15 01:03:42;;;;;;;20.52;11.78;;;;;;;3.85;100.00;100959.30;1733813;82;21082;-67
2022/11/15 01:06:26;;;;;;;24.27;11.73;;;;;;;3.77;100.00;100957.08;1734071;82;21058;-65
2022/11/15 01:09:13;;;;;;;21.95;13.78;;;;;;;3.76;100.00;100945.80;1733962;82;21589;-66
2022/11/15 01:11:58;;;;;;;20.20;12.20;;;;;;;3.79;100.00;100941.02;1734226;82;21057;-66
2022/11/15 01:14:43;;;;;;;22.00;12.78;;;;;;;3.75;100.00;100945.78;1734222;82;21050;-66
2022/11/15 01:17:29;;;;;;;23.35;13.58;;;;;;;3.67;100.00;100931.87;1712827;82;22412;-66
2022/11/15 01:20:14;;;;;;;23.35;11.93;;;;;;;3.65;100.00;100932.30;1695749;83;21064;-66
2022/11/15 01:22:59;;;;;;;24.20;13.75;;;;;;;3.48;100.00;100926.58;1718215;83;21161;-64
2022/11/15 01:25:45;;;;;;;18.62;10.95;;;;;;;3.53;100.00;100930.07;1718128;83;21061;-66
2022/11/15 01:28:35;;;;;;;24.05;12.88;;;;;;;3.68;100.00;100930.99;1718151;83;21148;-66
2022/11/15 01:31:20;;;;;;;24.27;12.85;;;;;;;3.70;100.00;100927.97;1718158;83;21034;-66
2022/11/15 01:34:06;;;;;;;22.73;12.82;;;;;;;3.71;100.00;100922.77;1718312;83;21057;-67
2022/11/15 01:36:51;;;;;;;24.20;14.33;;;;;;;3.58;100.00;100924.88;1718011;83;21144;-65
2022/11/15 01:39:37;;;;;;;25.10;13.22;;;;;;;3.53;100.00;100920.95;1718212;83;21060;-65
2022/11/15 01:42:21;;;;;;;27.73;14.98;;;;;;;3.61;100.00;100911.00;1718461;83;21049;-66
2022/11/15 01:45:12;;;;;;;22.93;13.60;;;;;;;3.62;100.00;100905.80;1718394;83;21015;-66
2022/11/15 01:47:57;;;;;;;23.80;14.13;;;;;;;3.61;100.00;100903.19;1718177;83;21112;-65
2022/11/15 01:50:42;;;;;;;21.77;12.40;;;;;;;3.74;100.00;100901.06;1718330;83;21103;-66
2022/11/15 01:53:29;;;;;;;22.35;13.00;;;;;;;3.80;100.00;100897.19;1718167;83;21546;-65
2022/11/15 01:56:18;;;;;;;21.55;12.98;;;;;;;3.77;100.00;100897.16;1718367;83;21097;-66
2022/11/15 01:59:05;;;;;;;23.55;12.93;;;;;;;4.02;100.00;100895.48;1718316;83;21032;-65
2022/11/15 02:01:52;;;;;;;17.57;11.35;;;;;;;3.94;100.00;100892.88;1725579;82;21022;-66
2022/11/15 02:04:45;;;;;;;21.55;11.68;;;;;;;3.94;100.00;100891.58;1718443;83;21153;-65
2022/11/15 02:07:31;;;;;;;20.45;12.10;;;;;;;3.87;100.00;100889.83;1718270;83;21132;-66
2022/11/15 02:10:20;;;;;;;20.30;11.88;;;;;;;3.86;100.00;100886.77;1718427;83;21093;-66
2022/11/15 02:13:05;;;;;;;16.82;10.85;;;;;;;3.93;100.00;100879.42;1718295;83;21084;-65
2022/11/15 02:16:19;;;;;;;23.57;12.82;;;;;;;3.96;100.00;100879.86;1718082;83;21585;-65
2022/11/15 02:19:21;;;;;;;20.08;11.78;;;;;;;3.88;100.00;100882.42;1718228;83;21848;-67
2022/11/15 02:22:36;;;;;;;20.12;11.20;;;;;;;3.93;100.00;100874.21;1718206;83;21034;-65
2022/11/15 02:26:18;;;;;;;16.23;10.38;;;;;;;3.93;100.00;100874.21;1718405;83;21100;-66
2022/11/15 02:29:38;;;;;;;19.27;10.72;;;;;;;3.99;100.00;100874.20;1718473;83;21568;-67
2022/11/15 02:32:44;;;;;;;18.30;11.03;;;;;;;3.95;100.00;100872.45;1718363;83;21095;-66
2022/11/15 02:35:43;;;;;;;19.65;11.28;;;;;;;3.91;100.00;100872.03;1718340;83;21330;-66
2022/11/15 02:39:01;;;;;;;17.20;10.72;;;;;;;3.88;100.00;100872.00;1718314;83;21952;-66
2022/11/15 02:41:55;;;;;;;15.48;10.38;;;;;;;3.78;100.00;100870.25;1718360;83;21073;-66
2022/11/15 02:44:44;;;;;;;18.12;10.28;;;;;;;3.83;100.00;100878.95;1718046;83;21562;-65
2022/11/15 02:47:28;;;;;;;19.20;10.75;;;;;;;3.70;100.00;100864.14;1718067;83;21148;-67
2022/11/15 02:50:17;;;;;;;20.82;12.40;;;;;;;3.70;100.00;100858.93;1718042;83;21860;-66
2022/11/15 02:53:02;;;;;;;22.40;10.30;;;;;;;3.67;100.00;100852.42;1718085;83;21096;-67
2022/11/15 02:55:48;;;;;;;18.15;11.25;;;;;;;3.70;100.00;100855.02;1718257;83;21126;-66
2022/11/15 02:58:54;;;;;;;18.00;11.12;;;;;;;3.72;100.00;100849.39;1718133;83;21525;-66
2022/11/15 03:02:08;;;;;;;19.02;11.18;;;;;;;3.74;100.00;100848.52;1718383;82;21628;-66
2022/11/15 03:05:28;;;;;;;18.98;10.28;;;;;;;3.80;100.00;100832.05;1718367;83;21819;-66
2022/11/15 03:08:38;;;;;;;19.20;11.33;;;;;;;3.82;100.00;100834.64;1718505;83;21097;-66
2022/11/15 03:11:25;;;;;;;18.80;11.25;;;;;;;3.88;100.00;100830.31;1718568;83;21533;-66
2022/11/15 03:14:20;;;;;;;16.05;9.98;;;;;;;3.90;100.00;100823.37;1718448;83;21104;-66
2022/11/15 03:17:26;;;;;;;19.60;11.18;;;;;;;3.93;100.00;100830.32;1718520;83;21097;-66
2022/11/15 03:20:12;;;;;;;16.45;10.00;;;;;;;3.93;100.00;100822.09;1718519;83;21279;-65
2022/11/15 03:23:05;;;;;;;19.85;11.40;;;;;;;3.86;100.00;100813.80;1718391;83;21537;-65
2022/11/15 03:25:51;;;;;;;17.80;10.50;;;;;;;3.99;100.00;100809.05;1718394;83;21089;-66
2022/11/15 03:28:42;;;;;;;17.80;10.53;;;;;;;3.89;100.00;100817.73;1718204;83;21093;-67
2022/11/15 03:31:49;;;;;;;18.23;10.78;;;;;;;3.97;100.00;100812.52;1718369;83;21041;-65
2022/11/15 03:35:09;;;;;;;20.08;10.75;;;;;;;3.93;100.00;100810.36;1718384;83;21200;-66
2022/11/15 03:38:08;;;;;;;17.45;10.93;;;;;;;3.91;100.00;100813.40;1718355;83;21027;-67
2022/11/15 03:41:01;;;;;;;23.50;12.45;;;;;;;3.84;100.00;100802.50;1718423;83;21533;-66
2022/11/15 03:44:07;;;;;;;20.17;10.20;;;;;;;3.78;100.00;100794.70;1718527;83;21054;-66
2022/11/15 03:47:21;;;;;;;19.82;12.00;;;;;;;3.78;100.00;100789.49;1718560;83;21108;-66
2022/11/15 03:50:16;;;;;;;19.52;10.65;;;;;;;3.91;100.00;100788.64;1718605;83;21271;-66
2022/11/15 03:53:01;;;;;;;22.75;12.28;;;;;;;3.92;100.00;100780.38;1718380;83;21045;-65
2022/11/15 03:55:45;;;;;;;23.22;12.40;;;;;;;3.79;100.00;100779.48;1718457;83;21105;-67
2022/11/15 03:58:31;;;;;;;18.48;10.98;;;;;;;3.77;100.00;100776.02;1718445;83;21049;-66
2022/11/15 04:01:16;;;;;;;23.87;12.00;;;;;;;3.88;100.00;100783.41;1718466;83;21112;-68
2022/11/15 04:04:01;;;;;;;24.70;11.55;;;;;;;3.90;100.00;100773.86;1718416;83;21813;-67
2022/11/15 04:06:47;;;;;;;23.35;12.70;;;;;;;3.91;100.00;100773.01;1718181;83;21108;-67
2022/11/15 04:10:01;;;;;;;20.50;12.45;;;;;;;3.90;100.00;100780.38;1718408;83;21112;-65
2022/11/15 04:12:31;;;;;;;18.73;11.48;;;;;;;3.90;100.00;100777.77;1718367;83;21037;-67
2022/11/15 04:15:22;;;;;;;18.70;11.53;;;;;;;3.87;100.00;100778.22;1718347;83;21552;-68
2022/11/15 04:18:08;;;;;;;24.63;10.75;;;;;;;3.85;100.00;100770.83;1712562;83;21321;-67
2022/11/15 04:26:50;;;;;;;21.50;12.28;;;;;;;3.87;100.00;100756.93;1705043;84;21058;-65
2022/11/15 04:29:36;;;;;;;19.27;11.08;;;;;;;3.76;100.00;100755.61;1704966;84;21548;-66
2022/11/15 04:32:21;;;;;;;25.02;11.43;;;;;;;3.80;100.00;100751.28;1704877;84;21261;-66
2022/11/15 04:35:08;;;;;;;20.60;10.93;;;;;;;3.79;100.00;100746.92;1704895;84;21058;-66
2022/11/15 04:37:54;;;;;;;23.00;12.07;;;;;;;3.82;100.00;100744.34;1704948;84;21038;-65
2022/11/15 04:40:39;;;;;;;20.77;12.45;;;;;;;3.86;100.00;100740.84;1704974;84;21046;-68
2022/11/15 04:43:24;;;;;;;23.47;11.48;;;;;;;3.82;100.00;100737.83;1704880;84;21057;-66
2022/11/15 04:46:09;;;;;;;19.87;11.22;;;;;;;3.88;100.00;100740.41;1704830;84;21605;-64
2022/11/15 04:48:55;;;;;;;21.50;10.40;;;;;;;4.02;100.00;100744.77;1704680;84;21089;-66
2022/11/15 04:51:40;;;;;;;25.17;12.85;;;;;;;3.98;100.00;100735.66;1704784;84;21074;-66
2022/11/15 04:54:25;;;;;;;23.07;11.48;;;;;;;3.96;100.00;100731.31;1704787;84;21097;-65
2022/11/15 04:57:10;;;;;;;19.98;11.80;;;;;;;4.02;100.00;100727.82;1704818;84;21565;-67
2022/11/15 04:59:54;;;;;;;23.15;11.80;;;;;;;3.91;100.00;100723.50;1704629;84;21907;-66
2022/11/15 05:05:43;;;;;;;23.98;11.95;;;;;;;3.89;100.00;100709.59;1704727;84;21101;-67
2022/11/15 05:08:29;;;;;;;26.70;14.53;;;;;;;3.78;100.00;100721.31;1705023;84;21577;-66
2022/11/15 05:11:14;;;;;;;27.02;14.55;;;;;;;3.83;100.00;100722.61;1704997;84;21057;-67
2022/11/15 05:14:00;;;;;;;27.98;14.63;;;;;;;3.76;100.00;100718.27;1704932;84;21525;-68
2022/11/15 05:16:45;;;;;;;26.77;14.47;;;;;;;3.86;100.00;100713.48;1704776;84;21046;-66
2022/11/15 05:19:30;;;;;;;32.48;16.62;;;;;;;3.85;100.00;100714.37;1716157;83;21017;-66
2022/11/15 05:22:15;;;;;;;31.73;16.90;;;;;;;3.71;100.00;100715.67;1718388;83;21108;-66
2022/11/15 05:25:01;;;;;;;28.60;15.72;;;;;;;3.76;100.00;100713.92;1718218;83;21057;-68
2022/11/15 05:27:46;;;;;;;37.85;18.98;;;;;;;3.76;100.00;100713.92;1718442;83;21694;-68
2022/11/15 05:30:32;;;;;;;40.58;18.67;;;;;;;3.73;100.00;100713.08;1718391;83;21049;-66
2022/11/15 05:33:17;;;;;;;36.80;18.07;;;;;;;3.81;100.00;100705.25;1718345;83;21118;-67
2022/11/15 05:36:13;;;;;;;39.53;20.68;;;;;;;3.83;100.00;100704.38;1718325;83;21010;-66
2022/11/15 05:38:58;;;;;;;38.92;17.87;;;;;;;3.90;100.00;100706.11;1718598;83;21608;-67
2022/11/15 05:41:54;;;;;;;39.15;17.27;;;;;;;3.80;100.00;100693.97;1718231;83;21228;-66
2022/11/15 05:44:41;;;;;;;36.65;17.37;;;;;;;3.85;100.00;100702.64;1718210;83;21073;-69
2022/11/15 05:47:28;;;;;;;34.80;16.32;;;;;;;3.84;100.00;100693.07;1718580;83;21065;-66
2022/11/15 05:50:14;;;;;;;34.75;18.60;;;;;;;3.85;100.00;100694.83;1718346;83;20990;-67
2022/11/15 05:52:59;;;;;;;40.45;19.12;;;;;;;3.91;100.00;100690.03;1718575;83;21061;-68
2022/11/15 05:55:44;;;;;;;39.73;19.25;;;;;;;3.93;100.00;100683.08;1718218;83;21226;-67
2022/11/15 05:58:34;;;;;;;41.88;18.55;;;;;;;3.90;100.00;100684.40;1695693;83;21545;-67
2022/11/15 06:01:19;;;;;;;35.50;17.98;;;;;;;3.90;100.00;100676.14;1718543;82;21047;-66
2022/11/15 06:04:04;;;;;;;38.48;18.52;;;;;;;3.93;100.00;100674.86;1718392;83;21045;-66
2022/11/15 06:06:49;;;;;;;40.10;19.17;;;;;;;3.97;100.00;100671.34;1718454;83;21069;-67
2022/11/15 06:09:34;;;;;;;38.70;18.30;;;;;;;3.84;100.00;100677.44;1718445;83;21099;-67
2022/11/15 06:12:20;;;;;;;39.63;19.67;;;;;;;3.90;100.00;100673.98;1718055;83;21049;-67
2022/11/15 06:15:06;;;;;;;47.15;20.85;;;;;;;3.91;100.00;100673.98;1718152;83;21061;-66
2022/11/15 06:17:51;;;;;;;37.60;18.60;;;;;;;3.93;100.00;100672.25;1717680;83;21084;-68
2022/11/15 06:20:37;;;;;;;40.17;18.35;;;;;;;3.97;100.00;100673.95;1704644;84;21093;-66
2022/11/15 06:23:22;;;;;;;37.67;19.15;;;;;;;4.12;100.00;100673.52;1704540;84;21242;-66
2022/11/15 06:26:08;;;;;;;48.30;21.35;;;;;;;4.16;100.00;100662.19;1704619;84;21038;-67
2022/11/15 06:28:53;;;;;;;41.40;20.40;;;;;;;4.17;100.00;100667.86;1704727;84;21097;-68
2022/11/15 06:31:39;;;;;;;45.38;21.55;;;;;;;4.22;100.00;100671.31;1704741;84;21041;-69
2022/11/15 06:34:24;;;;;;;54.53;23.65;;;;;;;4.14;100.00;100662.62;1704998;84;21089;-66
2022/11/15 06:37:09;;;;;;;46.00;20.62;;;;;;;4.19;100.00;100670.03;1704925;84;21803;-67
2022/11/15 06:39:54;;;;;;;51.90;22.90;;;;;;;4.19;100.00;100666.12;1704860;84;21557;-67
2022/11/15 06:42:39;;;;;;;54.83;22.10;;;;;;;4.19;100.00;100664.81;1705068;83;21105;-67
2022/11/15 06:45:26;;;;;;;46.08;21.25;;;;;;;4.15;100.00;100664.38;1714870;82;21010;-66
2022/11/15 06:48:12;;;;;;;51.40;22.67;;;;;;;4.22;100.00;100659.58;1734476;82;21088;-66
2022/11/15 06:51:00;;;;;;;46.18;21.12;;;;;;;4.18;100.00;100656.55;1716927;82;21755;-67
2022/11/15 06:53:46;;;;;;;46.48;21.10;;;;;;;4.26;100.00;100664.37;1734187;82;21062;-66
2022/11/15 06:56:31;;;;;;;44.27;20.82;;;;;;;4.23;100.00;100667.82;1734190;82;21077;-67
2022/11/15 06:59:16;;;;;;;50.15;21.48;;;;;;;4.24;100.00;100653.07;1734211;82;21050;-67
2022/11/15 07:02:01;;;;;;;44.90;19.60;;;;;;;4.22;100.00;100652.20;1717354;82;21053;-66
2022/11/15 07:04:46;;;;;;;48.23;20.17;;;;;;;4.22;100.00;100643.94;1705125;84;21279;-67
2022/11/15 07:07:34;;;;;;;43.25;17.95;;;;;;;4.13;100.00;100647.88;1704681;84;22046;-67
2022/11/15 07:10:21;;;;;;;42.62;18.15;;;;;;;4.10;100.00;100653.11;1704846;83;21540;-67
2022/11/15 07:13:06;;;;;;;43.90;22.10;;;;;;;4.12;100.00;100650.92;1704805;83;21077;-66
2022/11/15 07:15:51;;;;;;;55.03;21.52;;;;;;;4.07;100.00;100651.78;1704777;84;21124;-67
2022/11/15 07:18:38;;;;;;;44.83;21.25;;;;;;;4.06;100.00;100643.55;1704803;83;20991;-67
2022/11/15 07:21:23;;;;;;;53.73;22.95;;;;;;;4.14;100.00;100643.97;1704794;84;21085;-66
2022/11/15 07:24:10;;;;;;;45.85;20.70;;;;;;;4.16;100.00;100645.25;1704816;83;21014;-68
2022/11/15 07:26:55;;;;;;;40.52;19.45;;;;;;;4.09;100.00;100640.92;1705058;84;21113;-67
2022/11/15 07:29:39;;;;;;;35.15;16.42;;;;;;;4.23;100.00;100638.28;1704823;84;21033;-67
2022/11/15 07:32:24;;;;;;;33.83;15.88;;;;;;;4.18;100.00;100634.38;1704944;84;21613;-67
2022/11/15 07:35:09;;;;;;;40.85;18.60;;;;;;;4.14;100.00;100626.13;1704759;83;21038;-67
2022/11/15 07:37:59;;;;;;;39.03;18.52;;;;;;;4.24;100.00;100626.56;1704972;83;21129;-68
2022/11/15 07:40:44;;;;;;;33.70;14.87;;;;;;;4.31;100.00;100626.10;1704994;84;21065;-66
2022/11/15 07:43:30;;;;;;;34.55;14.65;;;;;;;4.17;100.00;100613.11;1704687;84;21858;-66
2022/11/15 07:46:14;;;;;;;34.92;16.07;;;;;;;4.19;100.00;100615.28;1704691;84;21883;-67
2022/11/15 07:48:59;;;;;;;37.60;15.03;;;;;;;4.40;100.00;100613.89;1704749;83;21581;-67
2022/11/15 07:51:44;;;;;;;43.25;16.27;;;;;;;4.41;100.00;100606.48;1704756;83;21053;-66
2022/11/15 07:54:31;;;;;;;41.95;19.80;;;;;;;4.43;100.00;100604.33;1705039;84;21105;-66
2022/11/15 07:57:16;;;;;;;45.10;22.00;;;;;;;4.37;100.00;100598.27;1704869;83;21031;-67
2022/11/15 08:00:04;;;;;;;65.52;29.60;;;;;;;4.37;100.00;100603.48;1704878;84;21903;-66
2022/11/15 08:02:49;;;;;;;94.17;39.88;;;;;;;4.22;100.00;100599.62;1704942;83;22036;-67
2022/11/15 08:05:35;;;;;;;78.42;36.35;;;;;;;4.35;100.00;100589.58;1704929;83;21039;-67
2022/11/15 08:08:20;;;;;;;95.38;44.93;;;;;;;4.45;100.00;100583.02;1704963;83;21597;-67
2022/11/15 08:11:05;;;;;;;77.75;33.88;;;;;;;4.45;100.00;100573.89;1704839;84;21085;-67
2022/11/15 08:13:51;;;;;;;63.25;25.65;;;;;;;4.48;100.00;100579.08;1704951;83;22447;-67
2022/11/15 08:16:36;;;;;;;82.42;33.95;;;;;;;4.46;100.00;100570.39;1704942;83;22262;-67
2022/11/15 08:19:21;;;;;;;47.17;20.90;;;;;;;4.49;100.00;100571.70;1709207;83;21064;-67
2022/11/15 08:22:07;;;;;;;36.58;16.97;;;;;;;4.49;100.00;100567.80;1718192;83;21042;-67
2022/11/15 08:24:52;;;;;;;30.82;15.35;;;;;;;4.48;100.00;100563.43;1718008;83;22211;-67
2022/11/15 08:27:37;;;;;;;38.13;18.95;;;;;;;4.51;100.00;100558.19;1718431;83;21136;-66
2022/11/15 08:30:22;;;;;;;41.23;19.57;;;;;;;4.41;100.00;100559.55;1718323;83;21092;-67
2022/11/15 08:33:13;;;;;;;37.33;17.57;;;;;;;4.53;100.00;100557.34;1718528;83;21100;-67
2022/11/15 08:35:59;;;;;;;;;;;;;;;4.57;100.00;100558.17;1720961;83;21064;-67
2022/11/15 08:38:44;;;;;;;37.03;14.30;;;;;;;4.55;100.00;100555.55;1718256;83;20189;-66
2022/11/15 08:41:37;;;;;;;33.70;15.88;;;;;;;4.61;100.00;100548.16;1718118;83;21940;-68
2022/11/15 08:44:21;;;;;;;34.25;16.02;;;;;;;4.70;100.00;100558.53;1718432;83;21025;-66
2022/11/15 08:47:06;;;;;;;36.93;16.45;;;;;;;4.69;100.00;100550.26;1718283;83;21055;-67
2022/11/15 08:49:51;;;;;;;31.52;15.00;;;;;;;4.64;100.00;100552.03;1718228;83;21096;-68
2022/11/15 08:52:36;;;;;;;31.95;15.50;;;;;;;4.79;100.00;100546.73;1718247;83;21560;-66
2022/11/15 08:55:21;;;;;;;33.90;16.97;;;;;;;4.87;100.00;100552.33;1718333;83;21122;-68
2022/11/15 08:58:07;;;;;;;32.48;15.30;;;;;;;4.66;100.00;100545.06;1718118;83;21481;-66
2022/11/15 09:00:52;;;;;;;36.33;15.80;;;;;;;4.67;100.00;100545.52;1718210;83;21021;-67
2022/11/15 09:03:40;;;;;;;102.50;54.08;;;;;;;4.56;100.00;100538.19;1718337;83;21154;-66
2022/11/15 09:06:24;;;;;;;70.50;35.55;;;;;;;4.50;100.00;100542.13;1696256;83;21041;-67
2022/11/15 09:09:10;;;;;;;50.33;25.15;;;;;;;4.56;100.00;100542.10;1718399;83;22156;-67
2022/11/15 09:11:55;;;;;;;44.45;22.42;;;;;;;4.69;100.00;100538.52;1718281;83;21060;-67
2022/11/15 09:14:41;;;;;;;32.80;19.23;;;;;;;4.60;100.00;100534.66;1718388;83;21274;-67
2022/11/15 09:17:26;;;;;;;33.50;16.25;;;;;;;4.60;100.00;100534.66;1718278;83;21084;-66
2022/11/15 09:20:11;;;;;;;35.23;18.07;;;;;;;4.56;100.00;100522.54;1718289;83;21049;-67
2022/11/15 09:23:02;;;;;;;35.98;18.82;;;;;;;4.66;100.00;100512.91;1718148;83;21279;-67
2022/11/15 09:25:48;;;;;;;31.50;16.70;;;;;;;4.69;100.00;100512.42;1718314;83;21013;-67
2022/11/15 09:28:34;;;;;;;32.00;18.57;;;;;;;4.74;100.00;100496.33;1718308;83;21049;-67
2022/11/15 09:31:19;;;;;;;37.70;20.20;;;;;;;4.73;100.00;100494.58;1718380;83;21564;-67
2022/11/15 09:34:06;;;;;;;39.20;21.97;;;;;;;4.75;100.00;100494.13;1718362;83;21057;-67
2022/11/15 09:36:52;;;;;;;43.75;22.17;;;;;;;4.76;100.00;100490.66;1718294;83;21651;-67
2022/11/15 09:39:37;;;;;;;49.42;24.80;;;;;;;4.77;100.00;100487.16;1718230;83;20994;-67
2022/11/15 09:42:46;;;;;;;49.35;24.85;;;;;;;4.79;100.00;100478.03;1718084;83;21057;-67
2022/11/15 09:45:36;;;;;;;41.25;20.32;;;;;;;4.70;100.00;100477.66;1718084;83;21014;-66
2022/11/15 09:48:49;;;;;;;49.15;23.18;;;;;;;4.60;100.00;100470.75;1717170;83;22063;-67
2022/11/15 09:51:46;;;;;;;49.18;24.82;;;;;;;4.50;100.00;100465.19;1701863;83;21560;-68
2022/11/15 09:54:30;;;;;;;49.27;25.65;;;;;;;4.37;100.00;100462.67;1717982;83;21580;-68
2022/11/15 09:57:18;;;;;;;42.73;22.02;;;;;;;4.41;100.00;100455.23;1717886;83;20994;-67
2022/11/15 10:00:19;;;;;;;53.42;25.27;;;;;;;4.36;100.00;100454.40;1718264;83;21037;-66
2022/11/15 10:03:15;;;;;;;41.98;21.95;;;;;;;4.22;100.00;100443.64;1744595;82;21033;-67
2022/11/15 10:05:47;;;;;;;45.80;19.82;;;;;;;4.17;100.00;100444.97;1747872;82;21840;-66
2022/11/15 10:09:02;;;;;;;52.62;22.30;;;;;;;4.28;100.00;100446.19;1747815;82;21101;-66
2022/11/15 10:11:31;;;;;;;52.27;23.30;;;;;;;4.38;100.00;100438.31;1747863;82;21081;-66
2022/11/15 10:14:02;;;;;;;46.53;21.62;;;;;;;4.41;100.00;100433.06;1748247;82;21580;-67
2022/11/15 10:16:54;;;;;;;;;;;;;;;4.61;100.00;100425.55;1750699;82;21081;-67
2022/11/15 10:19:35;;;;;;;54.55;22.13;;;;;;;4.55;100.00;100421.22;1747925;81;21187;-65
2022/11/15 10:22:31;;;;;;;46.08;21.65;;;;;;;4.62;100.00;100420.73;1748005;82;21025;-67
2022/11/15 10:25:18;;;;;;;45.20;21.17;;;;;;;4.60;100.00;100423.80;1748099;82;21785;-66
2022/11/15 10:28:00;;;;;;;61.75;25.65;;;;;;;4.57;100.00;100418.61;1747827;82;21025;-68
2022/11/15 10:30:38;;;;;;;52.03;20.72;;;;;;;4.61;100.00;100416.42;1735172;82;21077;-66
2022/11/15 10:34:23;;;;;;;41.03;18.47;;;;;;;4.06;100.00;100396.81;1814419;79;23654;-67
2022/11/15 10:36:56;;;;;;;35.78;18.30;;;;;;;4.36;100.00;100398.34;1787450;80;21037;-67
2022/11/15 10:39:23;;;;;;;38.42;19.00;;;;;;;4.46;100.00;100386.53;1787408;80;21081;-67
2022/11/15 10:41:51;;;;;;;36.33;19.05;;;;;;;4.51;100.00;100383.03;1787366;80;21536;-67
2022/11/15 10:44:30;;;;;;;37.33;19.48;;;;;;;4.59;100.00;100376.44;1787471;80;21494;-67
2022/11/15 10:47:02;;;;;;;42.38;20.32;;;;;;;4.62;100.00;100369.88;1786491;80;20981;-67
2022/11/15 10:49:31;;;;;;;38.15;20.10;;;;;;;4.77;100.00;100363.67;1787423;80;21494;-67
2022/11/15 10:52:19;;;;;;;40.55;21.55;;;;;;;4.83;100.00;100360.56;1787652;80;21124;-66
2022/11/15 10:54:59;;;;;;;38.45;18.92;;;;;;;4.73;100.00;100354.98;1787353;80;21004;-67
2022/11/15 10:57:30;;;;;;;35.43;20.23;;;;;;;4.78;100.00;100349.28;1787642;80;21049;-66
2022/11/15 11:00:03;;;;;;;37.20;20.52;;;;;;;4.69;100.00;100338.94;1787569;79;21025;-67
2022/11/15 11:02:37;;;;;;;40.60;20.70;;;;;;;4.73;100.00;100330.20;1762662;80;21085;-67
2022/11/15 11:05:33;;;;;;;39.03;22.22;;;;;;;4.74;100.00;100331.95;1756460;81;21221;-67
2022/11/15 11:08:16;;;;;;;44.13;22.77;;;;;;;4.81;100.00;100326.23;1756587;81;21066;-67
2022/11/15 11:11:02;;;;;;;48.45;21.62;;;;;;;4.82;100.00;100315.76;1756079;81;21075;-67
2022/11/15 11:13:38;;;;;;;47.40;23.35;;;;;;;4.78;100.00;100315.36;1756398;81;21043;-66
2022/11/15 11:16:42;;;;;;;40.67;21.68;;;;;;;4.86;100.00;100317.05;1755710;81;21039;-66
2022/11/15 11:19:37;;;;;;;45.15;22.75;;;;;;;4.88;100.00;100311.34;1756164;81;21141;-66
2022/11/15 11:22:32;;;;;;;43.30;22.50;;;;;;;4.92;100.00;100306.53;1756316;81;21051;-67
2022/11/15 11:25:37;;;;;;;40.78;22.22;;;;;;;4.88;100.00;100299.19;1755966;81;21019;-67
2022/11/15 11:28:42;;;;;;;39.92;22.52;;;;;;;4.94;100.00;100289.11;1756403;81;21074;-66
2022/11/15 11:31:26;;;;;;;54.65;27.90;;;;;;;5.10;100.00;100285.44;1737238;81;21079;-67
2022/11/15 11:34:37;;;;;;;48.55;24.50;;;;;;;5.05;100.00;100280.27;1747099;81;21218;-67
2022/11/15 11:37:27;;;;;;;44.70;23.97;;;;;;;5.19;100.00;100277.48;1743342;82;21507;-67
2022/11/15 11:40:37;;;;;;;51.23;25.08;;;;;;;5.26;100.00;100263.47;1743150;81;21118;-67
2022/11/15 11:43:28;;;;;;;48.73;24.40;;;;;;;5.08;100.00;100259.78;1705602;84;21081;-67
2022/11/15 11:46:12;;;;;;;45.12;23.30;;;;;;;5.21;100.00;100258.75;1738082;81;26465;-66
2022/11/15 11:48:47;;;;;;;48.30;25.08;;;;;;;5.23;100.00;100246.99;1742746;82;22124;-67
2022/11/15 11:51:22;;;;;;;45.90;24.15;;;;;;;5.26;100.00;100243.87;1742972;81;21154;-67
2022/11/15 11:54:04;;;;;;;48.63;23.87;;;;;;;5.28;100.00;100240.41;1724245;82;21036;-67
2022/11/15 11:56:36;;;;;;;44.60;24.20;;;;;;;5.30;100.00;100241.25;1742627;81;21027;-68
2022/11/15 11:59:19;;;;;;;43.87;24.02;;;;;;;5.30;100.00;100236.03;1742764;81;21012;-68
2022/11/15 12:01:45;;;;;;;40.55;21.20;;;;;;;5.33;100.00;100230.30;1753894;80;21112;-67
2022/11/15 12:04:21;;;;;;;43.45;21.75;;;;;;;5.39;100.00;100219.78;1773465;80;21116;-67
2022/11/15 12:07:05;;;;;;;41.10;20.68;;;;;;;5.37;100.00;100224.61;1772546;80;21073;-68
2022/11/15 12:09:53;;;;;;;43.23;21.35;;;;;;;5.41;100.00;100212.79;1772476;80;22167;-68
2022/11/15 12:12:58;;;;;;;47.08;23.12;;;;;;;5.41;100.00;100217.16;1773267;80;21631;-66
2022/11/15 12:15:45;;;;;;;44.98;23.80;;;;;;;5.41;100.00;100211.93;1773339;80;21159;-66
2022/11/15 12:18:14;;;;;;;41.90;22.30;;;;;;;5.42;100.00;100201.44;1773681;80;21018;-71
2022/11/15 12:20:55;;;;;;;;;;;;;;;5.32;100.00;100197.25;1776070;80;21604;-68
2022/11/15 12:23:28;;;;;;;46.08;22.62;;;;;;;5.40;100.00;100193.21;1773407;80;20227;-68
2022/11/15 12:26:06;;;;;;;47.73;22.10;;;;;;;5.46;100.00;100191.83;1773339;80;21018;-67
2022/11/15 12:28:51;;;;;;;38.55;22.10;;;;;;;5.45;100.00;100184.86;1773598;80;22334;-67
2022/11/15 12:31:29;;;;;;;54.80;22.98;;;;;;;5.43;100.00;100181.44;1773534;80;21035;-67
2022/11/15 12:33:57;;;;;;;44.10;23.45;;;;;;;5.40;100.00;100176.23;1773566;80;21050;-67
2022/11/15 12:36:41;;;;;;;46.15;24.75;;;;;;;5.45;100.00;100166.57;1773288;80;21033;-66
2022/11/15 12:39:10;;;;;;;40.17;21.80;;;;;;;5.46;100.00;100169.63;1772849;80;21100;-67
2022/11/15 12:41:40;;;;;;;45.28;23.32;;;;;;;5.42;100.00;100163.56;1773438;80;21693;-67
2022/11/15 12:44:15;;;;;;;45.15;23.27;;;;;;;5.38;100.00;100157.11;1773075;80;21673;-68
2022/11/15 12:46:51;;;;;;;47.48;21.77;;;;;;;5.43;100.00;100164.45;1769927;80;21022;-66
2022/11/15 12:49:29;;;;;;;42.08;22.82;;;;;;;5.44;100.00;100147.88;1773416;80;21593;-67
2022/11/15 12:52:03;;;;;;;48.92;24.12;;;;;;;5.58;100.00;100153.74;1773222;80;21121;-67
2022/11/15 12:54:41;;;;;;;46.58;24.20;;;;;;;5.59;100.00;100150.68;1773206;80;21306;-67